sensor_id;sensor_type;location;lat;lon;timestamp;P1;durP1;ratioP1;P2;durP2;ratioP2
15142;SDS011;7672;50.834;6.286;2023-04-09T00:00:41;30.23;;;24.07;;
15142;SDS011;7672;50.834;6.286;2023-04-09T00:03:08;32.33;;;23.97;;
15142;SDS011;7672;50.834;6.286;2023-04-09T00:05:39;34.60;;;23.83;;
15142;SDS011;7672;50.834;6.286;2023-04-09T00:08:06;27.97;;;21.47;;
15142;SDS011;7672;50.834;6.286;2023-04-09T00:10:33;29.30;;;23.23;;
15142;SDS011;7672;50.834;6.286;2023-04-09T00:13:00;28.47;;;21.43;;
15142;SDS011;7672;50.834;6.286;2023-04-09T00:15:27;29.57;;;23.30;;
15142;SDS011;7672;50.834;6.286;2023-04-09T00:17:57;26.83;;;20.13;;
15142;SDS011;7672;50.834;6.286;2023-04-09T00:20:24;33.63;;;23.13;;
15142;SDS011;7672;50.834;6.286;2023-04-09T00:22:51;31.07;;;22.53;;
15142;SDS011;7672;50.834;6.286;2023-04-09T00:25:19;32.07;;;23.10;;
15142;SDS011;7672;50.834;6.286;2023-04-09T00:27:46;26.83;;;21.20;;
15142;SDS011;7672;50.834;6.286;2023-04-09T00:30:12;26.33;;;19.37;;
15142;SDS011;7672;50.834;6.286;2023-04-09T00:32:39;29.33;;;20.60;;
15142;SDS011;7672;50.834;6.286;2023-04-09T00:35:06;27.33;;;19.67;;
15142;SDS011;7672;50.834;6.286;2023-04-09T00:37:34;27.13;;;19.73;;
15142;SDS011;7672;50.834;6.286;2023-04-09T00:40:01;26.90;;;20.50;;
15142;SDS011;7672;50.834;6.286;2023-04-09T00:42:31;22.80;;;18.13;;
15142;SDS011;7672;50.834;6.286;2023-04-09T00:45:03;26.27;;;18.63;;
15142;SDS011;7672;50.834;6.286;2023-04-09T00:47:31;24.87;;;17.80;;
15142;SDS011;7672;50.834;6.286;2023-04-09T00:50:01;26.73;;;17.07;;
15142;SDS011;7672;50.834;6.286;2023-04-09T00:52:28;23.83;;;17.17;;
15142;SDS011;7672;50.834;6.286;2023-04-09T00:54:56;25.47;;;18.83;;
15142;SDS011;7672;50.834;6.286;2023-04-09T00:57:26;29.73;;;19.23;;
15142;SDS011;7672;50.834;6.286;2023-04-09T00:59:53;30.23;;;22.23;;
15142;SDS011;7672;50.834;6.286;2023-04-09T01:02:21;28.90;;;20.40;;
15142;SDS011;7672;50.834;6.286;2023-04-09T01:04:48;31.90;;;22.07;;
15142;SDS011;7672;50.834;6.286;2023-04-09T01:13:07;27.40;;;20.70;;
15142;SDS011;7672;50.834;6.286;2023-04-09T01:15:57;28.80;;;20.37;;
15142;SDS011;7672;50.834;6.286;2023-04-09T01:21:05;30.40;;;22.10;;
15142;SDS011;7672;50.834;6.286;2023-04-09T01:29:20;32.93;;;21.93;;
15142;SDS011;7672;50.834;6.286;2023-04-09T01:31:50;30.53;;;20.83;;
15142;SDS011;7672;50.834;6.286;2023-04-09T01:34:19;27.33;;;21.57;;
15142;SDS011;7672;50.834;6.286;2023-04-09T01:36:54;32.93;;;21.80;;
15142;SDS011;7672;50.834;6.286;2023-04-09T01:39:25;30.00;;;20.87;;
15142;SDS011;7672;50.834;6.286;2023-04-09T01:41:52;29.50;;;21.03;;
15142;SDS011;7672;50.834;6.286;2023-04-09T01:44:21;28.47;;;21.43;;
15142;SDS011;7672;50.834;6.286;2023-04-09T01:46:50;35.53;;;21.40;;
15142;SDS011;7672;50.834;6.286;2023-04-09T01:49:19;31.33;;;21.80;;
15142;SDS011;7672;50.834;6.286;2023-04-09T01:51:47;26.17;;;19.70;;
15142;SDS011;7672;50.834;6.286;2023-04-09T01:54:15;29.83;;;20.40;;
15142;SDS011;7672;50.834;6.286;2023-04-09T01:56:43;32.67;;;20.80;;
15142;SDS011;7672;50.834;6.286;2023-04-09T01:59:11;29.27;;;20.67;;
15142;SDS011;7672;50.834;6.286;2023-04-09T02:01:46;30.43;;;19.97;;
15142;SDS011;7672;50.834;6.286;2023-04-09T02:09:46;29.93;;;20.43;;
15142;SDS011;7672;50.834;6.286;2023-04-09T02:12:15;27.33;;;19.53;;
15142;SDS011;7672;50.834;6.286;2023-04-09T02:14:49;25.33;;;19.17;;
15142;SDS011;7672;50.834;6.286;2023-04-09T02:17:17;28.90;;;20.03;;
15142;SDS011;7672;50.834;6.286;2023-04-09T02:19:45;30.60;;;20.27;;
15142;SDS011;7672;50.834;6.286;2023-04-09T02:22:13;26.53;;;19.00;;
15142;SDS011;7672;50.834;6.286;2023-04-09T02:24:41;25.53;;;18.93;;
15142;SDS011;7672;50.834;6.286;2023-04-09T02:27:08;25.20;;;18.43;;
15142;SDS011;7672;50.834;6.286;2023-04-09T02:29:35;28.43;;;19.20;;
15142;SDS011;7672;50.834;6.286;2023-04-09T02:32:03;26.07;;;19.13;;
15142;SDS011;7672;50.834;6.286;2023-04-09T02:34:30;27.93;;;19.73;;
15142;SDS011;7672;50.834;6.286;2023-04-09T02:36:57;28.73;;;18.80;;
15142;SDS011;7672;50.834;6.286;2023-04-09T02:39:24;25.30;;;18.17;;
15142;SDS011;7672;50.834;6.286;2023-04-09T02:41:52;28.10;;;18.70;;
15142;SDS011;7672;50.834;6.286;2023-04-09T02:44:19;26.40;;;19.60;;
15142;SDS011;7672;50.834;6.286;2023-04-09T02:46:46;25.33;;;18.03;;
15142;SDS011;7672;50.834;6.286;2023-04-09T02:49:14;29.10;;;19.57;;
15142;SDS011;7672;50.834;6.286;2023-04-09T02:51:41;27.17;;;18.80;;
15142;SDS011;7672;50.834;6.286;2023-04-09T02:54:08;25.43;;;18.37;;
15142;SDS011;7672;50.834;6.286;2023-04-09T02:56:35;26.90;;;19.50;;
15142;SDS011;7672;50.834;6.286;2023-04-09T02:59:01;31.10;;;19.73;;
15142;SDS011;7672;50.834;6.286;2023-04-09T03:01:28;28.90;;;20.00;;
15142;SDS011;7672;50.834;6.286;2023-04-09T03:03:55;28.40;;;20.63;;
15142;SDS011;7672;50.834;6.286;2023-04-09T03:06:22;33.07;;;20.57;;
15142;SDS011;7672;50.834;6.286;2023-04-09T03:08:49;28.73;;;20.23;;
15142;SDS011;7672;50.834;6.286;2023-04-09T03:11:16;28.70;;;19.87;;
15142;SDS011;7672;50.834;6.286;2023-04-09T03:13:43;28.47;;;20.13;;
15142;SDS011;7672;50.834;6.286;2023-04-09T03:16:10;31.63;;;21.67;;
15142;SDS011;7672;50.834;6.286;2023-04-09T03:18:36;29.47;;;21.27;;
15142;SDS011;7672;50.834;6.286;2023-04-09T03:21:04;27.03;;;19.93;;
15142;SDS011;7672;50.834;6.286;2023-04-09T03:23:32;30.27;;;20.20;;
15142;SDS011;7672;50.834;6.286;2023-04-09T03:26:00;28.50;;;20.77;;
15142;SDS011;7672;50.834;6.286;2023-04-09T03:28:28;29.17;;;20.03;;
15142;SDS011;7672;50.834;6.286;2023-04-09T03:30:56;29.60;;;21.23;;
15142;SDS011;7672;50.834;6.286;2023-04-09T03:33:23;30.40;;;20.87;;
15142;SDS011;7672;50.834;6.286;2023-04-09T03:35:51;32.63;;;20.53;;
15142;SDS011;7672;50.834;6.286;2023-04-09T03:38:18;26.83;;;20.27;;
15142;SDS011;7672;50.834;6.286;2023-04-09T03:40:45;29.47;;;19.93;;
15142;SDS011;7672;50.834;6.286;2023-04-09T03:43:11;30.87;;;20.63;;
15142;SDS011;7672;50.834;6.286;2023-04-09T03:45:38;28.40;;;20.37;;
15142;SDS011;7672;50.834;6.286;2023-04-09T03:48:05;28.97;;;20.67;;
15142;SDS011;7672;50.834;6.286;2023-04-09T03:50:37;36.60;;;22.67;;
15142;SDS011;7672;50.834;6.286;2023-04-09T03:53:05;34.47;;;27.83;;
15142;SDS011;7672;50.834;6.286;2023-04-09T03:55:33;31.20;;;22.77;;
15142;SDS011;7672;50.834;6.286;2023-04-09T03:57:59;34.13;;;21.60;;
15142;SDS011;7672;50.834;6.286;2023-04-09T04:00:26;29.53;;;20.73;;
15142;SDS011;7672;50.834;6.286;2023-04-09T04:02:53;31.57;;;21.80;;
15142;SDS011;7672;50.834;6.286;2023-04-09T04:05:23;32.93;;;21.43;;
15142;SDS011;7672;50.834;6.286;2023-04-09T04:07:52;32.60;;;21.07;;
15142;SDS011;7672;50.834;6.286;2023-04-09T04:10:19;28.83;;;21.10;;
15142;SDS011;7672;50.834;6.286;2023-04-09T04:12:46;30.00;;;20.50;;
15142;SDS011;7672;50.834;6.286;2023-04-09T04:15:13;30.37;;;19.83;;
15142;SDS011;7672;50.834;6.286;2023-04-09T04:17:40;28.77;;;21.10;;
15142;SDS011;7672;50.834;6.286;2023-04-09T04:20:07;31.63;;;20.47;;
15142;SDS011;7672;50.834;6.286;2023-04-09T04:22:35;27.80;;;19.63;;
15142;SDS011;7672;50.834;6.286;2023-04-09T04:25:02;31.43;;;21.07;;
15142;SDS011;7672;50.834;6.286;2023-04-09T04:27:30;31.33;;;21.53;;
15142;SDS011;7672;50.834;6.286;2023-04-09T04:29:57;32.93;;;22.37;;
15142;SDS011;7672;50.834;6.286;2023-04-09T04:32:25;31.30;;;21.63;;
15142;SDS011;7672;50.834;6.286;2023-04-09T04:34:52;30.73;;;21.27;;
15142;SDS011;7672;50.834;6.286;2023-04-09T04:37:19;28.47;;;19.33;;
15142;SDS011;7672;50.834;6.286;2023-04-09T04:39:46;29.93;;;20.47;;
15142;SDS011;7672;50.834;6.286;2023-04-09T04:42:13;29.70;;;19.93;;
15142;SDS011;7672;50.834;6.286;2023-04-09T04:44:42;27.10;;;19.67;;
15142;SDS011;7672;50.834;6.286;2023-04-09T04:47:09;31.17;;;21.03;;
15142;SDS011;7672;50.834;6.286;2023-04-09T04:49:36;29.33;;;19.10;;
15142;SDS011;7672;50.834;6.286;2023-04-09T04:52:03;30.90;;;22.20;;
15142;SDS011;7672;50.834;6.286;2023-04-09T04:54:31;31.47;;;21.17;;
15142;SDS011;7672;50.834;6.286;2023-04-09T04:56:59;30.30;;;20.57;;
15142;SDS011;7672;50.834;6.286;2023-04-09T04:59:26;28.57;;;19.73;;
15142;SDS011;7672;50.834;6.286;2023-04-09T05:01:53;29.70;;;20.57;;
15142;SDS011;7672;50.834;6.286;2023-04-09T05:04:20;30.00;;;18.83;;
15142;SDS011;7672;50.834;6.286;2023-04-09T05:06:47;30.27;;;19.23;;
15142;SDS011;7672;50.834;6.286;2023-04-09T05:09:14;26.03;;;18.47;;
15142;SDS011;7672;50.834;6.286;2023-04-09T05:11:41;33.73;;;21.07;;
15142;SDS011;7672;50.834;6.286;2023-04-09T05:14:08;29.67;;;19.57;;
15142;SDS011;7672;50.834;6.286;2023-04-09T05:16:35;29.87;;;20.43;;
15142;SDS011;7672;50.834;6.286;2023-04-09T05:19:02;32.33;;;21.47;;
15142;SDS011;7672;50.834;6.286;2023-04-09T05:21:29;30.17;;;20.00;;
15142;SDS011;7672;50.834;6.286;2023-04-09T05:23:57;34.13;;;21.93;;
15142;SDS011;7672;50.834;6.286;2023-04-09T05:26:24;33.03;;;22.87;;
15142;SDS011;7672;50.834;6.286;2023-04-09T05:28:51;29.80;;;21.37;;
15142;SDS011;7672;50.834;6.286;2023-04-09T05:31:18;32.13;;;22.43;;
15142;SDS011;7672;50.834;6.286;2023-04-09T05:33:45;33.13;;;21.70;;
15142;SDS011;7672;50.834;6.286;2023-04-09T05:36:14;35.13;;;22.77;;
15142;SDS011;7672;50.834;6.286;2023-04-09T05:38:42;29.23;;;20.67;;
15142;SDS011;7672;50.834;6.286;2023-04-09T05:41:11;36.83;;;23.67;;
15142;SDS011;7672;50.834;6.286;2023-04-09T05:43:38;30.40;;;19.63;;
15142;SDS011;7672;50.834;6.286;2023-04-09T05:46:05;33.83;;;23.30;;
15142;SDS011;7672;50.834;6.286;2023-04-09T05:48:35;34.67;;;22.77;;
15142;SDS011;7672;50.834;6.286;2023-04-09T05:51:02;35.37;;;23.73;;
15142;SDS011;7672;50.834;6.286;2023-04-09T05:53:29;33.83;;;22.50;;
15142;SDS011;7672;50.834;6.286;2023-04-09T05:55:57;36.57;;;24.13;;
15142;SDS011;7672;50.834;6.286;2023-04-09T05:58:23;35.57;;;25.30;;
15142;SDS011;7672;50.834;6.286;2023-04-09T06:00:50;33.47;;;23.17;;
15142;SDS011;7672;50.834;6.286;2023-04-09T06:03:17;34.97;;;21.67;;
15142;SDS011;7672;50.834;6.286;2023-04-09T06:05:45;31.80;;;22.33;;
15142;SDS011;7672;50.834;6.286;2023-04-09T06:08:13;26.50;;;20.03;;
15142;SDS011;7672;50.834;6.286;2023-04-09T06:10:40;32.17;;;21.60;;
15142;SDS011;7672;50.834;6.286;2023-04-09T06:13:06;36.57;;;21.07;;
15142;SDS011;7672;50.834;6.286;2023-04-09T06:15:36;42.83;;;24.30;;
15142;SDS011;7672;50.834;6.286;2023-04-09T06:18:04;45.20;;;26.17;;
15142;SDS011;7672;50.834;6.286;2023-04-09T06:20:31;43.93;;;24.90;;
15142;SDS011;7672;50.834;6.286;2023-04-09T06:22:57;37.70;;;25.27;;
15142;SDS011;7672;50.834;6.286;2023-04-09T06:25:24;46.00;;;26.30;;
15142;SDS011;7672;50.834;6.286;2023-04-09T06:27:51;40.23;;;25.27;;
15142;SDS011;7672;50.834;6.286;2023-04-09T06:30:18;36.87;;;23.37;;
15142;SDS011;7672;50.834;6.286;2023-04-09T06:32:44;32.77;;;23.73;;
15142;SDS011;7672;50.834;6.286;2023-04-09T06:35:19;35.10;;;24.60;;
15142;SDS011;7672;50.834;6.286;2023-04-09T06:37:46;41.23;;;26.00;;
15142;SDS011;7672;50.834;6.286;2023-04-09T06:40:13;33.40;;;24.93;;
15142;SDS011;7672;50.834;6.286;2023-04-09T06:42:40;35.03;;;26.30;;
15142;SDS011;7672;50.834;6.286;2023-04-09T06:45:07;35.00;;;24.63;;
15142;SDS011;7672;50.834;6.286;2023-04-09T06:47:34;35.40;;;25.63;;
15142;SDS011;7672;50.834;6.286;2023-04-09T06:50:01;30.73;;;23.87;;
15142;SDS011;7672;50.834;6.286;2023-04-09T06:52:28;33.83;;;25.13;;
15142;SDS011;7672;50.834;6.286;2023-04-09T06:54:55;30.83;;;25.57;;
15142;SDS011;7672;50.834;6.286;2023-04-09T06:57:22;32.13;;;23.97;;
15142;SDS011;7672;50.834;6.286;2023-04-09T06:59:49;33.00;;;24.10;;
15142;SDS011;7672;50.834;6.286;2023-04-09T07:02:16;32.63;;;24.40;;
15142;SDS011;7672;50.834;6.286;2023-04-09T07:04:43;33.53;;;26.37;;
15142;SDS011;7672;50.834;6.286;2023-04-09T07:07:10;31.87;;;28.60;;
15142;SDS011;7672;50.834;6.286;2023-04-09T07:09:37;32.20;;;29.00;;
15142;SDS011;7672;50.834;6.286;2023-04-09T07:12:04;31.77;;;28.53;;
15142;SDS011;7672;50.834;6.286;2023-04-09T07:14:31;31.00;;;27.90;;
15142;SDS011;7672;50.834;6.286;2023-04-09T07:16:58;30.40;;;27.27;;
15142;SDS011;7672;50.834;6.286;2023-04-09T07:19:25;27.87;;;25.13;;
15142;SDS011;7672;50.834;6.286;2023-04-09T07:21:51;29.13;;;26.03;;
15142;SDS011;7672;50.834;6.286;2023-04-09T07:24:18;29.53;;;26.67;;
15142;SDS011;7672;50.834;6.286;2023-04-09T07:26:45;29.30;;;26.40;;
15142;SDS011;7672;50.834;6.286;2023-04-09T07:29:12;28.10;;;25.20;;
15142;SDS011;7672;50.834;6.286;2023-04-09T07:31:38;28.03;;;25.37;;
15142;SDS011;7672;50.834;6.286;2023-04-09T07:34:05;27.73;;;24.93;;
15142;SDS011;7672;50.834;6.286;2023-04-09T07:36:32;28.13;;;25.33;;
15142;SDS011;7672;50.834;6.286;2023-04-09T07:38:59;27.97;;;25.20;;
15142;SDS011;7672;50.834;6.286;2023-04-09T07:41:25;27.27;;;24.57;;
15142;SDS011;7672;50.834;6.286;2023-04-09T07:43:52;25.07;;;22.73;;
15142;SDS011;7672;50.834;6.286;2023-04-09T07:46:19;26.00;;;23.50;;
15142;SDS011;7672;50.834;6.286;2023-04-09T07:48:47;27.10;;;24.60;;
15142;SDS011;7672;50.834;6.286;2023-04-09T07:51:15;24.30;;;22.10;;
15142;SDS011;7672;50.834;6.286;2023-04-09T07:53:42;25.50;;;23.10;;
15142;SDS011;7672;50.834;6.286;2023-04-09T07:56:08;24.42;;;22.30;;
15142;SDS011;7672;50.834;6.286;2023-04-09T07:58:35;24.90;;;22.48;;
15142;SDS011;7672;50.834;6.286;2023-04-09T08:01:05;24.10;;;21.80;;
15142;SDS011;7672;50.834;6.286;2023-04-09T08:03:32;24.33;;;21.98;;
15142;SDS011;7672;50.834;6.286;2023-04-09T08:06:01;23.65;;;21.45;;
15142;SDS011;7672;50.834;6.286;2023-04-09T08:08:28;22.75;;;20.42;;
15142;SDS011;7672;50.834;6.286;2023-04-09T08:10:56;23.65;;;21.45;;
15142;SDS011;7672;50.834;6.286;2023-04-09T08:13:23;21.00;;;18.90;;
15142;SDS011;7672;50.834;6.286;2023-04-09T08:15:52;21.00;;;19.10;;
15142;SDS011;7672;50.834;6.286;2023-04-09T08:18:19;18.83;;;17.10;;
15142;SDS011;7672;50.834;6.286;2023-04-09T08:20:46;19.45;;;17.42;;
15142;SDS011;7672;50.834;6.286;2023-04-09T08:23:12;18.17;;;16.65;;
15142;SDS011;7672;50.834;6.286;2023-04-09T08:25:39;19.38;;;17.63;;
15142;SDS011;7672;50.834;6.286;2023-04-09T08:28:06;20.05;;;18.27;;
15142;SDS011;7672;50.834;6.286;2023-04-09T08:30:33;17.88;;;16.30;;
15142;SDS011;7672;50.834;6.286;2023-04-09T08:33:00;17.80;;;16.15;;
15142;SDS011;7672;50.834;6.286;2023-04-09T08:35:30;15.55;;;14.15;;
15142;SDS011;7672;50.834;6.286;2023-04-09T08:37:58;14.48;;;13.18;;
15142;SDS011;7672;50.834;6.286;2023-04-09T08:40:24;13.40;;;12.20;;
15142;SDS011;7672;50.834;6.286;2023-04-09T08:42:53;11.82;;;10.82;;
15142;SDS011;7672;50.834;6.286;2023-04-09T08:45:22;12.63;;;11.52;;
15142;SDS011;7672;50.834;6.286;2023-04-09T08:47:49;8.90;;;8.15;;
15142;SDS011;7672;50.834;6.286;2023-04-09T08:50:17;8.25;;;7.40;;
15142;SDS011;7672;50.834;6.286;2023-04-09T08:52:45;15.68;;;12.93;;
15142;SDS011;7672;50.834;6.286;2023-04-09T08:55:13;7.38;;;6.68;;
15142;SDS011;7672;50.834;6.286;2023-04-09T08:57:40;7.63;;;6.93;;
15142;SDS011;7672;50.834;6.286;2023-04-09T09:00:07;7.65;;;7.05;;
15142;SDS011;7672;50.834;6.286;2023-04-09T09:02:35;8.00;;;7.40;;
15142;SDS011;7672;50.834;6.286;2023-04-09T09:05:02;7.57;;;6.97;;
15142;SDS011;7672;50.834;6.286;2023-04-09T09:07:29;7.97;;;7.28;;
15142;SDS011;7672;50.834;6.286;2023-04-09T09:09:57;8.38;;;7.70;;
15142;SDS011;7672;50.834;6.286;2023-04-09T09:12:32;7.68;;;7.07;;
15142;SDS011;7672;50.834;6.286;2023-04-09T09:15:04;7.57;;;6.97;;
15142;SDS011;7672;50.834;6.286;2023-04-09T09:17:53;7.70;;;7.00;;
15142;SDS011;7672;50.834;6.286;2023-04-09T09:20:22;8.25;;;7.38;;
15142;SDS011;7672;50.834;6.286;2023-04-09T09:22:51;7.90;;;7.20;;
15142;SDS011;7672;50.834;6.286;2023-04-09T09:25:21;7.40;;;6.80;;
15142;SDS011;7672;50.834;6.286;2023-04-09T09:27:50;8.25;;;7.18;;
15142;SDS011;7672;50.834;6.286;2023-04-09T09:30:21;7.97;;;7.18;;
15142;SDS011;7672;50.834;6.286;2023-04-09T09:32:51;8.68;;;7.78;;
15142;SDS011;7672;50.834;6.286;2023-04-09T09:35:29;7.90;;;7.30;;
15142;SDS011;7672;50.834;6.286;2023-04-09T09:38:00;7.13;;;6.63;;
15142;SDS011;7672;50.834;6.286;2023-04-09T09:40:29;7.97;;;7.18;;
15142;SDS011;7672;50.834;6.286;2023-04-09T09:42:56;8.40;;;7.72;;
15142;SDS011;7672;50.834;6.286;2023-04-09T09:45:23;8.05;;;7.43;;
15142;SDS011;7672;50.834;6.286;2023-04-09T09:47:51;7.82;;;7.13;;
15142;SDS011;7672;50.834;6.286;2023-04-09T09:50:20;9.07;;;8.32;;
15142;SDS011;7672;50.834;6.286;2023-04-09T09:52:53;8.18;;;7.57;;
15142;SDS011;7672;50.834;6.286;2023-04-09T09:55:32;7.88;;;7.28;;
15142;SDS011;7672;50.834;6.286;2023-04-09T09:58:18;7.65;;;7.05;;
15142;SDS011;7672;50.834;6.286;2023-04-09T10:01:15;7.43;;;6.82;;
15142;SDS011;7672;50.834;6.286;2023-04-09T10:03:46;7.50;;;6.80;;
15142;SDS011;7672;50.834;6.286;2023-04-09T10:06:17;7.57;;;6.97;;
15142;SDS011;7672;50.834;6.286;2023-04-09T10:08:45;7.35;;;6.75;;
15142;SDS011;7672;50.834;6.286;2023-04-09T10:11:17;7.68;;;7.07;;
15142;SDS011;7672;50.834;6.286;2023-04-09T10:13:47;8.68;;;7.68;;
15142;SDS011;7672;50.834;6.286;2023-04-09T10:16:21;8.52;;;7.82;;
15142;SDS011;7672;50.834;6.286;2023-04-09T10:18:48;8.35;;;7.65;;
15142;SDS011;7672;50.834;6.286;2023-04-09T10:22:00;7.88;;;7.28;;
15142;SDS011;7672;50.834;6.286;2023-04-09T10:24:46;7.38;;;6.78;;
15142;SDS011;7672;50.834;6.286;2023-04-09T10:27:15;7.53;;;6.93;;
15142;SDS011;7672;50.834;6.286;2023-04-09T10:29:46;8.20;;;7.50;;
15142;SDS011;7672;50.834;6.286;2023-04-09T10:32:17;7.88;;;7.18;;
15142;SDS011;7672;50.834;6.286;2023-04-09T10:34:51;7.57;;;6.97;;
15142;SDS011;7672;50.834;6.286;2023-04-09T10:37:23;7.93;;;7.22;;
15142;SDS011;7672;50.834;6.286;2023-04-09T10:39:52;7.68;;;7.00;;
15142;SDS011;7672;50.834;6.286;2023-04-09T10:45:16;7.13;;;6.30;;
15142;SDS011;7672;50.834;6.286;2023-04-09T10:47:48;6.68;;;6.07;;
15142;SDS011;7672;50.834;6.286;2023-04-09T10:52:53;6.30;;;5.80;;
15142;SDS011;7672;50.834;6.286;2023-04-09T10:55:28;6.57;;;5.97;;
15142;SDS011;7672;50.834;6.286;2023-04-09T10:58:08;6.47;;;5.97;;
15142;SDS011;7672;50.834;6.286;2023-04-09T11:00:39;5.82;;;5.32;;
15142;SDS011;7672;50.834;6.286;2023-04-09T11:05:59;5.97;;;5.47;;
15142;SDS011;7672;50.834;6.286;2023-04-09T11:08:34;6.18;;;5.68;;
15142;SDS011;7672;50.834;6.286;2023-04-09T11:11:03;6.90;;;6.30;;
15142;SDS011;7672;50.834;6.286;2023-04-09T11:13:31;7.07;;;6.47;;
15142;SDS011;7672;50.834;6.286;2023-04-09T11:15:59;6.72;;;6.13;;
15142;SDS011;7672;50.834;6.286;2023-04-09T11:18:29;7.38;;;6.70;;
15142;SDS011;7672;50.834;6.286;2023-04-09T11:20:58;7.07;;;6.47;;
15142;SDS011;7672;50.834;6.286;2023-04-09T11:23:27;6.38;;;5.88;;
15142;SDS011;7672;50.834;6.286;2023-04-09T11:25:54;6.88;;;6.28;;
15142;SDS011;7672;50.834;6.286;2023-04-09T11:28:21;6.03;;;5.53;;
15142;SDS011;7672;50.834;6.286;2023-04-09T11:30:50;6.05;;;5.55;;
15142;SDS011;7672;50.834;6.286;2023-04-09T11:33:17;6.40;;;5.80;;
15142;SDS011;7672;50.834;6.286;2023-04-09T11:35:45;6.38;;;5.88;;
15142;SDS011;7672;50.834;6.286;2023-04-09T11:38:14;5.82;;;5.32;;
15142;SDS011;7672;50.834;6.286;2023-04-09T11:40:41;6.00;;;5.50;;
15142;SDS011;7672;50.834;6.286;2023-04-09T11:43:16;6.47;;;5.88;;
15142;SDS011;7672;50.834;6.286;2023-04-09T11:45:43;6.10;;;5.60;;
15142;SDS011;7672;50.834;6.286;2023-04-09T11:48:13;7.80;;;5.75;;
15142;SDS011;7672;50.834;6.286;2023-04-09T11:50:43;5.35;;;4.85;;
15142;SDS011;7672;50.834;6.286;2023-04-09T11:53:14;5.53;;;4.80;;
15142;SDS011;7672;50.834;6.286;2023-04-09T11:55:49;6.07;;;5.50;;
15142;SDS011;7672;50.834;6.286;2023-04-09T11:58:20;5.70;;;5.20;;
15142;SDS011;7672;50.834;6.286;2023-04-09T12:00:53;5.78;;;5.28;;
15142;SDS011;7672;50.834;6.286;2023-04-09T12:03:32;6.70;;;6.10;;
15142;SDS011;7672;50.834;6.286;2023-04-09T12:06:00;6.40;;;5.80;;
15142;SDS011;7672;50.834;6.286;2023-04-09T12:08:28;6.60;;;6.00;;
15142;SDS011;7672;50.834;6.286;2023-04-09T12:10:56;6.40;;;5.80;;
15142;SDS011;7672;50.834;6.286;2023-04-09T12:13:34;5.27;;;4.87;;
15142;SDS011;7672;50.834;6.286;2023-04-09T12:16:01;7.43;;;6.10;;
15142;SDS011;7672;50.834;6.286;2023-04-09T12:18:28;6.27;;;5.77;;
15142;SDS011;7672;50.834;6.286;2023-04-09T12:20:55;6.30;;;5.27;;
15142;SDS011;7672;50.834;6.286;2023-04-09T12:23:22;5.60;;;5.10;;
15142;SDS011;7672;50.834;6.286;2023-04-09T12:25:49;5.23;;;4.83;;
15142;SDS011;7672;50.834;6.286;2023-04-09T12:28:16;5.47;;;5.07;;
15142;SDS011;7672;50.834;6.286;2023-04-09T12:30:43;6.50;;;5.90;;
15142;SDS011;7672;50.834;6.286;2023-04-09T12:33:11;6.63;;;6.03;;
15142;SDS011;7672;50.834;6.286;2023-04-09T12:35:38;6.83;;;6.13;;
15142;SDS011;7672;50.834;6.286;2023-04-09T12:38:05;6.20;;;5.47;;
15142;SDS011;7672;50.834;6.286;2023-04-09T12:40:33;6.63;;;6.03;;
15142;SDS011;7672;50.834;6.286;2023-04-09T12:43:01;6.43;;;5.83;;
15142;SDS011;7672;50.834;6.286;2023-04-09T12:45:29;6.40;;;5.80;;
15142;SDS011;7672;50.834;6.286;2023-04-09T12:47:57;5.97;;;5.33;;
15142;SDS011;7672;50.834;6.286;2023-04-09T12:50:24;6.63;;;5.83;;
15142;SDS011;7672;50.834;6.286;2023-04-09T12:52:51;6.90;;;6.23;;
15142;SDS011;7672;50.834;6.286;2023-04-09T12:55:17;5.27;;;4.87;;
15142;SDS011;7672;50.834;6.286;2023-04-09T12:57:45;5.60;;;5.10;;
15142;SDS011;7672;50.834;6.286;2023-04-09T13:00:14;5.77;;;5.27;;
15142;SDS011;7672;50.834;6.286;2023-04-09T13:02:41;6.70;;;6.10;;
15142;SDS011;7672;50.834;6.286;2023-04-09T13:05:08;5.83;;;5.27;;
15142;SDS011;7672;50.834;6.286;2023-04-09T13:07:35;6.60;;;5.90;;
15142;SDS011;7672;50.834;6.286;2023-04-09T13:10:02;7.03;;;6.43;;
15142;SDS011;7672;50.834;6.286;2023-04-09T13:12:29;6.57;;;5.97;;
15142;SDS011;7672;50.834;6.286;2023-04-09T13:14:56;6.47;;;5.87;;
15142;SDS011;7672;50.834;6.286;2023-04-09T13:17:24;8.03;;;7.13;;
15142;SDS011;7672;50.834;6.286;2023-04-09T13:19:51;7.17;;;6.50;;
15142;SDS011;7672;50.834;6.286;2023-04-09T13:22:19;7.00;;;6.33;;
15142;SDS011;7672;50.834;6.286;2023-04-09T13:24:46;6.97;;;6.27;;
15142;SDS011;7672;50.834;6.286;2023-04-09T13:27:13;5.97;;;5.47;;
15142;SDS011;7672;50.834;6.286;2023-04-09T13:29:41;7.07;;;6.30;;
15142;SDS011;7672;50.834;6.286;2023-04-09T13:32:08;7.13;;;6.43;;
15142;SDS011;7672;50.834;6.286;2023-04-09T13:34:36;6.87;;;6.27;;
15142;SDS011;7672;50.834;6.286;2023-04-09T13:37:05;6.77;;;6.17;;
15142;SDS011;7672;50.834;6.286;2023-04-09T13:39:32;6.30;;;5.80;;
15142;SDS011;7672;50.834;6.286;2023-04-09T13:41:59;9.37;;;6.87;;
15142;SDS011;7672;50.834;6.286;2023-04-09T13:44:38;6.70;;;6.10;;
15142;SDS011;7672;50.834;6.286;2023-04-09T13:47:07;6.50;;;5.90;;
15142;SDS011;7672;50.834;6.286;2023-04-09T13:49:36;6.40;;;5.83;;
15142;SDS011;7672;50.834;6.286;2023-04-09T13:52:02;7.47;;;6.53;;
15142;SDS011;7672;50.834;6.286;2023-04-09T13:54:30;6.77;;;6.13;;
15142;SDS011;7672;50.834;6.286;2023-04-09T13:57:00;7.20;;;6.53;;
15142;SDS011;7672;50.834;6.286;2023-04-09T13:59:28;9.33;;;8.43;;
15142;SDS011;7672;50.834;6.286;2023-04-09T14:01:56;7.13;;;6.43;;
15142;SDS011;7672;50.834;6.286;2023-04-09T14:04:22;6.90;;;6.03;;
15142;SDS011;7672;50.834;6.286;2023-04-09T14:06:49;6.50;;;5.90;;
15142;SDS011;7672;50.834;6.286;2023-04-09T14:09:16;8.40;;;6.77;;
15142;SDS011;7672;50.834;6.286;2023-04-09T14:11:43;6.70;;;6.00;;
15142;SDS011;7672;50.834;6.286;2023-04-09T14:14:09;6.30;;;5.70;;
15142;SDS011;7672;50.834;6.286;2023-04-09T14:16:36;6.40;;;5.80;;
15142;SDS011;7672;50.834;6.286;2023-04-09T14:19:03;7.73;;;7.03;;
15142;SDS011;7672;50.834;6.286;2023-04-09T14:21:32;7.03;;;6.43;;
15142;SDS011;7672;50.834;6.286;2023-04-09T14:23:59;6.73;;;6.13;;
15142;SDS011;7672;50.834;6.286;2023-04-09T14:26:26;6.23;;;5.73;;
15142;SDS011;7672;50.834;6.286;2023-04-09T14:28:54;6.70;;;6.00;;
15142;SDS011;7672;50.834;6.286;2023-04-09T14:31:21;6.90;;;6.20;;
15142;SDS011;7672;50.834;6.286;2023-04-09T14:33:48;6.07;;;5.47;;
15142;SDS011;7672;50.834;6.286;2023-04-09T14:36:14;6.17;;;5.67;;
15142;SDS011;7672;50.834;6.286;2023-04-09T14:38:42;5.70;;;5.17;;
15142;SDS011;7672;50.834;6.286;2023-04-09T14:41:09;5.50;;;5.00;;
15142;SDS011;7672;50.834;6.286;2023-04-09T14:43:36;6.27;;;5.67;;
15142;SDS011;7672;50.834;6.286;2023-04-09T14:46:02;7.80;;;7.10;;
15142;SDS011;7672;50.834;6.286;2023-04-09T14:48:31;10.43;;;9.33;;
15142;SDS011;7672;50.834;6.286;2023-04-09T14:50:58;10.23;;;9.37;;
15142;SDS011;7672;50.834;6.286;2023-04-09T14:53:24;7.30;;;6.60;;
15142;SDS011;7672;50.834;6.286;2023-04-09T14:55:51;6.37;;;5.77;;
15142;SDS011;7672;50.834;6.286;2023-04-09T14:58:18;7.37;;;6.67;;
15142;SDS011;7672;50.834;6.286;2023-04-09T15:00:45;5.57;;;5.03;;
15142;SDS011;7672;50.834;6.286;2023-04-09T15:03:12;7.10;;;6.40;;
15142;SDS011;7672;50.834;6.286;2023-04-09T15:05:40;6.43;;;5.83;;
15142;SDS011;7672;50.834;6.286;2023-04-09T15:08:09;5.83;;;5.30;;
15142;SDS011;7672;50.834;6.286;2023-04-09T15:10:36;6.00;;;5.50;;
15142;SDS011;7672;50.834;6.286;2023-04-09T15:13:03;5.43;;;5.03;;
15142;SDS011;7672;50.834;6.286;2023-04-09T15:15:31;5.73;;;5.20;;
15142;SDS011;7672;50.834;6.286;2023-04-09T15:17:57;6.23;;;5.63;;
15142;SDS011;7672;50.834;6.286;2023-04-09T15:20:34;5.77;;;5.10;;